Terminal Aerodrome Forecast
Issued by NWS

Home | Current Version | Previous Version | Text Only | Print | Product List | Glossary On
Versions: 1 2 3 4 5 6 7 8 9 10 11 12 13 14 15 16 17
000
FTUS44 KCRP 301100
TAFALI
TAF
KALI 301120Z 3012/3112 VRB03KT 5SM BR FEW020
     FM301500 09006KT P6SM SCT040
     FM310300 12008KT P6SM FEW015 SCT060=

USA.gov is the U.S. government's official web portal to all federal, state and local government web resources and services.